sensor_id;sensor_type;location;lat;lon;timestamp;temperature;humidity
30594;DHT22;33199;47.590;8.300;2023-07-02T00:02:22;23.10;58.20
30594;DHT22;33199;47.590;8.300;2023-07-02T00:04:47;23.10;57.40
30594;DHT22;33199;47.590;8.300;2023-07-02T00:07:14;23.10;57.50
30594;DHT22;33199;47.590;8.300;2023-07-02T00:09:40;23.10;57.50
30594;DHT22;33199;47.590;8.300;2023-07-02T00:12:06;23.10;57.50
30594;DHT22;33199;47.590;8.300;2023-07-02T00:14:31;23.10;57.50
30594;DHT22;33199;47.590;8.300;2023-07-02T00:16:57;23.10;57.60
30594;DHT22;33199;47.590;8.300;2023-07-02T00:19:23;23.10;57.50
30594;DHT22;33199;47.590;8.300;2023-07-02T00:21:48;23.10;57.40
30594;DHT22;33199;47.590;8.300;2023-07-02T00:24:14;23.10;57.40
30594;DHT22;33199;47.590;8.300;2023-07-02T00:26:41;23.10;57.40
30594;DHT22;33199;47.590;8.300;2023-07-02T00:29:06;23.10;57.50
30594;DHT22;33199;47.590;8.300;2023-07-02T00:31:33;23.10;57.50
30594;DHT22;33199;47.590;8.300;2023-07-02T00:33:58;23.10;57.40
30594;DHT22;33199;47.590;8.300;2023-07-02T00:36:26;23.10;57.50
30594;DHT22;33199;47.590;8.300;2023-07-02T00:38:51;23.10;57.40
30594;DHT22;33199;47.590;8.300;2023-07-02T00:41:17;23.10;57.50
30594;DHT22;33199;47.590;8.300;2023-07-02T00:46:36;23.10;57.40
30594;DHT22;33199;47.590;8.300;2023-07-02T00:52:04;23.10;57.40
30594;DHT22;33199;47.590;8.300;2023-07-02T00:54:30;23.10;57.60
30594;DHT22;33199;47.590;8.300;2023-07-02T00:56:55;23.10;57.50
30594;DHT22;33199;47.590;8.300;2023-07-02T00:59:21;23.10;57.50
30594;DHT22;33199;47.590;8.300;2023-07-02T01:01:47;23.10;57.50
30594;DHT22;33199;47.590;8.300;2023-07-02T01:04:17;23.00;57.50
30594;DHT22;33199;47.590;8.300;2023-07-02T01:06:43;23.00;57.50
30594;DHT22;33199;47.590;8.300;2023-07-02T01:09:09;23.00;57.60
30594;DHT22;33199;47.590;8.300;2023-07-02T01:11:45;23.00;57.50
30594;DHT22;33199;47.590;8.300;2023-07-02T01:16:37;23.00;57.50
30594;DHT22;33199;47.590;8.300;2023-07-02T01:19:07;23.00;57.50
30594;DHT22;33199;47.590;8.300;2023-07-02T01:21:36;23.00;57.50
30594;DHT22;33199;47.590;8.300;2023-07-02T01:24:01;23.00;57.50
30594;DHT22;33199;47.590;8.300;2023-07-02T01:26:31;23.00;57.50
30594;DHT22;33199;47.590;8.300;2023-07-02T01:29:01;23.00;57.60
30594;DHT22;33199;47.590;8.300;2023-07-02T01:31:36;23.00;57.50
30594;DHT22;33199;47.590;8.300;2023-07-02T01:34:02;23.00;57.60
30594;DHT22;33199;47.590;8.300;2023-07-02T01:36:30;23.00;57.60
30594;DHT22;33199;47.590;8.300;2023-07-02T01:38:55;23.00;57.60
30594;DHT22;33199;47.590;8.300;2023-07-02T01:41:20;23.00;57.60
30594;DHT22;33199;47.590;8.300;2023-07-02T01:43:46;23.00;57.60
30594;DHT22;33199;47.590;8.300;2023-07-02T01:46:11;23.00;57.60
30594;DHT22;33199;47.590;8.300;2023-07-02T01:48:37;23.00;57.60
30594;DHT22;33199;47.590;8.300;2023-07-02T01:51:02;23.00;57.60
30594;DHT22;33199;47.590;8.300;2023-07-02T01:53:28;23.00;57.60
30594;DHT22;33199;47.590;8.300;2023-07-02T01:55:53;23.00;57.60
30594;DHT22;33199;47.590;8.300;2023-07-02T01:58:19;23.00;57.60
30594;DHT22;33199;47.590;8.300;2023-07-02T02:00:45;23.00;57.70
30594;DHT22;33199;47.590;8.300;2023-07-02T02:03:11;23.00;57.60
30594;DHT22;33199;47.590;8.300;2023-07-02T02:05:36;23.00;57.70
30594;DHT22;33199;47.590;8.300;2023-07-02T02:08:02;23.00;57.70
30594;DHT22;33199;47.590;8.300;2023-07-02T02:10:27;23.00;57.70
30594;DHT22;33199;47.590;8.300;2023-07-02T02:12:53;23.00;57.80
30594;DHT22;33199;47.590;8.300;2023-07-02T02:15:18;23.00;57.80
30594;DHT22;33199;47.590;8.300;2023-07-02T02:17:44;23.00;57.80
30594;DHT22;33199;47.590;8.300;2023-07-02T02:20:11;22.90;57.80
30594;DHT22;33199;47.590;8.300;2023-07-02T02:22:36;22.90;57.70
30594;DHT22;33199;47.590;8.300;2023-07-02T02:25:02;22.90;58.20
30594;DHT22;33199;47.590;8.300;2023-07-02T02:27:28;22.90;57.70
30594;DHT22;33199;47.590;8.300;2023-07-02T02:29:54;22.90;57.80
30594;DHT22;33199;47.590;8.300;2023-07-02T02:32:19;23.00;57.80
30594;DHT22;33199;47.590;8.300;2023-07-02T02:34:47;23.00;57.90
30594;DHT22;33199;47.590;8.300;2023-07-02T02:37:12;22.90;57.80
30594;DHT22;33199;47.590;8.300;2023-07-02T02:39:37;22.90;57.80
30594;DHT22;33199;47.590;8.300;2023-07-02T02:42:03;22.90;57.80
30594;DHT22;33199;47.590;8.300;2023-07-02T02:44:29;22.90;57.80
30594;DHT22;33199;47.590;8.300;2023-07-02T02:46:54;22.90;57.80
30594;DHT22;33199;47.590;8.300;2023-07-02T02:49:20;22.90;57.80
30594;DHT22;33199;47.590;8.300;2023-07-02T02:51:46;22.90;57.80
30594;DHT22;33199;47.590;8.300;2023-07-02T02:54:12;22.90;57.90
30594;DHT22;33199;47.590;8.300;2023-07-02T02:56:37;22.90;57.80
30594;DHT22;33199;47.590;8.300;2023-07-02T02:59:03;22.90;57.90
30594;DHT22;33199;47.590;8.300;2023-07-02T03:01:28;22.90;57.90
30594;DHT22;33199;47.590;8.300;2023-07-02T03:03:57;22.90;57.80
30594;DHT22;33199;47.590;8.300;2023-07-02T03:06:23;22.90;57.80
30594;DHT22;33199;47.590;8.300;2023-07-02T03:08:48;22.90;57.90
30594;DHT22;33199;47.590;8.300;2023-07-02T03:11:14;22.90;57.80
30594;DHT22;33199;47.590;8.300;2023-07-02T03:13:39;22.90;57.90
30594;DHT22;33199;47.590;8.300;2023-07-02T03:16:05;22.90;57.90
30594;DHT22;33199;47.590;8.300;2023-07-02T03:18:31;22.90;57.90
30594;DHT22;33199;47.590;8.300;2023-07-02T03:20:56;22.90;57.90
30594;DHT22;33199;47.590;8.300;2023-07-02T03:23:22;22.90;57.90
30594;DHT22;33199;47.590;8.300;2023-07-02T03:25:47;22.90;57.90
30594;DHT22;33199;47.590;8.300;2023-07-02T03:28:13;22.90;57.90
30594;DHT22;33199;47.590;8.300;2023-07-02T03:30:38;22.80;57.90
30594;DHT22;33199;47.590;8.300;2023-07-02T03:33:04;22.80;57.80
30594;DHT22;33199;47.590;8.300;2023-07-02T03:35:29;22.90;57.80
30594;DHT22;33199;47.590;8.300;2023-07-02T03:37:55;22.90;57.90
30594;DHT22;33199;47.590;8.300;2023-07-02T03:40:20;22.80;57.80
30594;DHT22;33199;47.590;8.300;2023-07-02T03:42:46;22.80;57.80
30594;DHT22;33199;47.590;8.300;2023-07-02T03:45:11;22.80;57.80
30594;DHT22;33199;47.590;8.300;2023-07-02T03:47:37;22.80;57.80
30594;DHT22;33199;47.590;8.300;2023-07-02T03:50:02;22.80;57.80
30594;DHT22;33199;47.590;8.300;2023-07-02T03:52:28;22.80;57.80
30594;DHT22;33199;47.590;8.300;2023-07-02T03:54:53;22.80;57.80
30594;DHT22;33199;47.590;8.300;2023-07-02T03:57:19;22.80;57.80
30594;DHT22;33199;47.590;8.300;2023-07-02T03:59:44;22.80;57.80
30594;DHT22;33199;47.590;8.300;2023-07-02T04:02:10;22.80;57.80
30594;DHT22;33199;47.590;8.300;2023-07-02T04:04:35;22.80;57.80
30594;DHT22;33199;47.590;8.300;2023-07-02T04:07:01;22.80;57.80
30594;DHT22;33199;47.590;8.300;2023-07-02T04:09:26;22.80;57.90
30594;DHT22;33199;47.590;8.300;2023-07-02T04:11:51;22.80;57.80
30594;DHT22;33199;47.590;8.300;2023-07-02T04:14:17;22.80;57.80
30594;DHT22;33199;47.590;8.300;2023-07-02T04:16:43;22.70;57.80
30594;DHT22;33199;47.590;8.300;2023-07-02T04:19:10;22.80;57.80
30594;DHT22;33199;47.590;8.300;2023-07-02T04:21:35;22.80;57.80
30594;DHT22;33199;47.590;8.300;2023-07-02T04:24:01;22.70;57.70
30594;DHT22;33199;47.590;8.300;2023-07-02T04:26:26;22.70;57.70
30594;DHT22;33199;47.590;8.300;2023-07-02T04:28:55;22.80;57.70
30594;DHT22;33199;47.590;8.300;2023-07-02T04:31:21;22.80;57.70
30594;DHT22;33199;47.590;8.300;2023-07-02T04:33:46;22.70;57.70
30594;DHT22;33199;47.590;8.300;2023-07-02T04:36:12;22.70;57.70
30594;DHT22;33199;47.590;8.300;2023-07-02T04:38:38;22.70;57.70
30594;DHT22;33199;47.590;8.300;2023-07-02T04:41:04;22.70;57.70
30594;DHT22;33199;47.590;8.300;2023-07-02T04:43:33;22.70;57.70
30594;DHT22;33199;47.590;8.300;2023-07-02T04:45:59;22.70;57.70
30594;DHT22;33199;47.590;8.300;2023-07-02T04:48:24;22.70;57.70
30594;DHT22;33199;47.590;8.300;2023-07-02T04:50:50;22.70;57.70
30594;DHT22;33199;47.590;8.300;2023-07-02T04:53:15;22.70;57.70
30594;DHT22;33199;47.590;8.300;2023-07-02T04:55:41;22.70;57.70
30594;DHT22;33199;47.590;8.300;2023-07-02T04:58:06;22.70;57.60
30594;DHT22;33199;47.590;8.300;2023-07-02T05:00:32;22.70;57.70
30594;DHT22;33199;47.590;8.300;2023-07-02T05:02:57;22.70;57.70
30594;DHT22;33199;47.590;8.300;2023-07-02T05:05:23;22.70;57.70
30594;DHT22;33199;47.590;8.300;2023-07-02T05:07:48;22.70;57.70
30594;DHT22;33199;47.590;8.300;2023-07-02T05:10:14;22.70;57.60
30594;DHT22;33199;47.590;8.300;2023-07-02T05:12:41;22.70;57.60
30594;DHT22;33199;47.590;8.300;2023-07-02T05:15:07;22.70;57.70
30594;DHT22;33199;47.590;8.300;2023-07-02T05:17:32;22.70;57.60
30594;DHT22;33199;47.590;8.300;2023-07-02T05:20:00;22.60;57.60
30594;DHT22;33199;47.590;8.300;2023-07-02T05:22:26;22.60;57.60
30594;DHT22;33199;47.590;8.300;2023-07-02T05:24:52;22.70;57.60
30594;DHT22;33199;47.590;8.300;2023-07-02T05:27:18;22.60;57.60
30594;DHT22;33199;47.590;8.300;2023-07-02T05:29:45;22.60;57.60
30594;DHT22;33199;47.590;8.300;2023-07-02T05:32:11;22.60;57.50
30594;DHT22;33199;47.590;8.300;2023-07-02T05:34:37;22.60;57.50
30594;DHT22;33199;47.590;8.300;2023-07-02T05:37:02;22.60;57.60
30594;DHT22;33199;47.590;8.300;2023-07-02T05:39:29;22.60;57.60
30594;DHT22;33199;47.590;8.300;2023-07-02T05:41:56;22.60;57.50
30594;DHT22;33199;47.590;8.300;2023-07-02T05:44:21;22.60;57.60
30594;DHT22;33199;47.590;8.300;2023-07-02T05:46:47;22.60;57.60
30594;DHT22;33199;47.590;8.300;2023-07-02T05:49:12;22.60;57.50
30594;DHT22;33199;47.590;8.300;2023-07-02T05:51:38;22.60;57.60
30594;DHT22;33199;47.590;8.300;2023-07-02T05:54:03;22.60;57.60
30594;DHT22;33199;47.590;8.300;2023-07-02T05:56:29;22.60;57.60
30594;DHT22;33199;47.590;8.300;2023-07-02T05:58:54;22.60;57.50
30594;DHT22;33199;47.590;8.300;2023-07-02T06:01:20;22.60;57.50
30594;DHT22;33199;47.590;8.300;2023-07-02T06:03:45;22.60;57.60
30594;DHT22;33199;47.590;8.300;2023-07-02T06:06:11;22.60;57.60
30594;DHT22;33199;47.590;8.300;2023-07-02T06:08:37;22.60;57.50
30594;DHT22;33199;47.590;8.300;2023-07-02T06:11:02;22.60;57.50
30594;DHT22;33199;47.590;8.300;2023-07-02T06:13:27;22.60;57.50
30594;DHT22;33199;47.590;8.300;2023-07-02T06:15:53;22.60;57.50
30594;DHT22;33199;47.590;8.300;2023-07-02T06:18:18;22.60;57.60
30594;DHT22;33199;47.590;8.300;2023-07-02T06:20:45;22.60;57.50
30594;DHT22;33199;47.590;8.300;2023-07-02T06:23:10;22.50;57.50
30594;DHT22;33199;47.590;8.300;2023-07-02T06:25:36;22.50;57.50
30594;DHT22;33199;47.590;8.300;2023-07-02T06:28:01;22.60;57.50
30594;DHT22;33199;47.590;8.300;2023-07-02T06:30:27;22.60;58.10
30594;DHT22;33199;47.590;8.300;2023-07-02T06:32:53;22.50;57.50
30594;DHT22;33199;47.590;8.300;2023-07-02T06:35:19;22.50;57.60
30594;DHT22;33199;47.590;8.300;2023-07-02T06:37:45;22.60;57.50
30594;DHT22;33199;47.590;8.300;2023-07-02T06:40:11;22.50;57.50
30594;DHT22;33199;47.590;8.300;2023-07-02T06:42:36;22.50;57.50
30594;DHT22;33199;47.590;8.300;2023-07-02T06:45:02;22.50;57.60
30594;DHT22;33199;47.590;8.300;2023-07-02T06:47:29;22.50;57.50
30594;DHT22;33199;47.590;8.300;2023-07-02T06:49:55;22.50;57.50
30594;DHT22;33199;47.590;8.300;2023-07-02T06:52:20;22.50;57.50
30594;DHT22;33199;47.590;8.300;2023-07-02T06:54:46;22.50;57.60
30594;DHT22;33199;47.590;8.300;2023-07-02T06:57:14;22.50;57.50
30594;DHT22;33199;47.590;8.300;2023-07-02T06:59:40;22.50;57.50
30594;DHT22;33199;47.590;8.300;2023-07-02T07:02:05;22.50;57.60
30594;DHT22;33199;47.590;8.300;2023-07-02T07:04:32;22.50;57.60
30594;DHT22;33199;47.590;8.300;2023-07-02T07:06:57;22.50;57.50
30594;DHT22;33199;47.590;8.300;2023-07-02T07:09:23;22.50;57.50
30594;DHT22;33199;47.590;8.300;2023-07-02T07:11:48;22.50;57.50
30594;DHT22;33199;47.590;8.300;2023-07-02T07:14:14;22.50;57.50
30594;DHT22;33199;47.590;8.300;2023-07-02T07:16:40;22.50;57.50
30594;DHT22;33199;47.590;8.300;2023-07-02T07:19:05;22.50;57.60
30594;DHT22;33199;47.590;8.300;2023-07-02T07:21:31;22.50;57.50
30594;DHT22;33199;47.590;8.300;2023-07-02T07:23:56;22.50;57.60
30594;DHT22;33199;47.590;8.300;2023-07-02T07:26:22;22.50;57.60
30594;DHT22;33199;47.590;8.300;2023-07-02T07:28:47;22.50;57.60
30594;DHT22;33199;47.590;8.300;2023-07-02T07:31:13;22.50;57.60
30594;DHT22;33199;47.590;8.300;2023-07-02T07:33:38;22.50;57.60
30594;DHT22;33199;47.590;8.300;2023-07-02T07:36:04;22.40;57.50
30594;DHT22;33199;47.590;8.300;2023-07-02T07:38:29;22.50;57.50
30594;DHT22;33199;47.590;8.300;2023-07-02T07:40:55;22.50;57.50
30594;DHT22;33199;47.590;8.300;2023-07-02T07:43:21;22.40;57.50
30594;DHT22;33199;47.590;8.300;2023-07-02T07:45:46;22.40;57.30
30594;DHT22;33199;47.590;8.300;2023-07-02T07:48:12;22.40;54.70
30594;DHT22;33199;47.590;8.300;2023-07-02T07:50:37;22.30;53.40
30594;DHT22;33199;47.590;8.300;2023-07-02T07:53:03;22.20;52.90
30594;DHT22;33199;47.590;8.300;2023-07-02T07:55:28;22.20;53.20
30594;DHT22;33199;47.590;8.300;2023-07-02T07:57:54;22.10;53.00
30594;DHT22;33199;47.590;8.300;2023-07-02T08:00:19;22.00;53.30
30594;DHT22;33199;47.590;8.300;2023-07-02T08:02:47;21.90;53.00
30594;DHT22;33199;47.590;8.300;2023-07-02T08:05:13;21.80;53.10
30594;DHT22;33199;47.590;8.300;2023-07-02T08:07:39;21.70;53.40
30594;DHT22;33199;47.590;8.300;2023-07-02T08:10:05;21.60;53.70
30594;DHT22;33199;47.590;8.300;2023-07-02T08:12:33;21.40;53.70
30594;DHT22;33199;47.590;8.300;2023-07-02T08:14:58;21.40;54.20
30594;DHT22;33199;47.590;8.300;2023-07-02T08:17:24;21.40;54.40
30594;DHT22;33199;47.590;8.300;2023-07-02T08:19:49;21.40;54.80
30594;DHT22;33199;47.590;8.300;2023-07-02T08:22:15;21.40;54.90
30594;DHT22;33199;47.590;8.300;2023-07-02T08:24:40;21.30;54.80
30594;DHT22;33199;47.590;8.300;2023-07-02T08:27:06;21.30;54.90
30594;DHT22;33199;47.590;8.300;2023-07-02T08:29:32;21.30;55.00
30594;DHT22;33199;47.590;8.300;2023-07-02T08:31:57;21.20;55.10
30594;DHT22;33199;47.590;8.300;2023-07-02T08:34:23;21.20;55.30
30594;DHT22;33199;47.590;8.300;2023-07-02T08:36:48;21.20;55.30
30594;DHT22;33199;47.590;8.300;2023-07-02T08:39:14;21.20;55.50
30594;DHT22;33199;47.590;8.300;2023-07-02T08:41:49;21.20;55.60
30594;DHT22;33199;47.590;8.300;2023-07-02T08:44:18;21.30;55.80
30594;DHT22;33199;47.590;8.300;2023-07-02T08:46:44;21.30;55.70
30594;DHT22;33199;47.590;8.300;2023-07-02T08:49:10;21.30;55.60
30594;DHT22;33199;47.590;8.300;2023-07-02T08:51:35;21.40;55.60
30594;DHT22;33199;47.590;8.300;2023-07-02T08:54:01;21.50;55.60
30594;DHT22;33199;47.590;8.300;2023-07-02T08:56:27;21.50;55.50
30594;DHT22;33199;47.590;8.300;2023-07-02T08:58:53;21.50;55.50
30594;DHT22;33199;47.590;8.300;2023-07-02T09:01:18;21.50;55.50
30594;DHT22;33199;47.590;8.300;2023-07-02T09:03:44;21.60;55.50
30594;DHT22;33199;47.590;8.300;2023-07-02T09:06:10;21.60;55.50
30594;DHT22;33199;47.590;8.300;2023-07-02T09:08:36;21.70;55.50
30594;DHT22;33199;47.590;8.300;2023-07-02T09:11:16;21.60;55.50
30594;DHT22;33199;47.590;8.300;2023-07-02T09:13:43;21.70;55.50
30594;DHT22;33199;47.590;8.300;2023-07-02T09:16:20;21.70;55.50
30594;DHT22;33199;47.590;8.300;2023-07-02T09:18:54;21.70;55.50
30594;DHT22;33199;47.590;8.300;2023-07-02T09:21:20;21.70;55.60
30594;DHT22;33199;47.590;8.300;2023-07-02T09:23:45;21.70;55.50
30594;DHT22;33199;47.590;8.300;2023-07-02T09:26:19;21.70;55.50
30594;DHT22;33199;47.590;8.300;2023-07-02T09:28:44;21.70;55.60
30594;DHT22;33199;47.590;8.300;2023-07-02T09:31:10;21.80;55.60
30594;DHT22;33199;47.590;8.300;2023-07-02T09:33:35;21.80;55.60
30594;DHT22;33199;47.590;8.300;2023-07-02T09:36:01;21.80;55.60
30594;DHT22;33199;47.590;8.300;2023-07-02T09:38:26;21.80;55.70
30594;DHT22;33199;47.590;8.300;2023-07-02T09:40:52;21.80;55.70
30594;DHT22;33199;47.590;8.300;2023-07-02T09:43:18;21.80;55.70
30594;DHT22;33199;47.590;8.300;2023-07-02T09:45:48;21.80;55.60
30594;DHT22;33199;47.590;8.300;2023-07-02T09:48:15;21.80;55.70
30594;DHT22;33199;47.590;8.300;2023-07-02T09:50:42;21.80;55.70
30594;DHT22;33199;47.590;8.300;2023-07-02T09:53:08;21.80;55.70
30594;DHT22;33199;47.590;8.300;2023-07-02T09:55:34;21.80;55.70
30594;DHT22;33199;47.590;8.300;2023-07-02T09:57:59;21.80;55.70
30594;DHT22;33199;47.590;8.300;2023-07-02T10:00:25;21.80;55.80
30594;DHT22;33199;47.590;8.300;2023-07-02T10:02:50;21.90;55.80
30594;DHT22;33199;47.590;8.300;2023-07-02T10:05:29;21.90;55.80
30594;DHT22;33199;47.590;8.300;2023-07-02T10:07:55;21.90;55.80
30594;DHT22;33199;47.590;8.300;2023-07-02T10:10:30;21.90;55.90
30594;DHT22;33199;47.590;8.300;2023-07-02T10:12:56;21.80;55.80
30594;DHT22;33199;47.590;8.300;2023-07-02T10:15:28;21.90;55.90
30594;DHT22;33199;47.590;8.300;2023-07-02T10:17:54;21.90;55.90
30594;DHT22;33199;47.590;8.300;2023-07-02T10:20:30;21.90;55.90
30594;DHT22;33199;47.590;8.300;2023-07-02T10:22:56;21.90;55.90
30594;DHT22;33199;47.590;8.300;2023-07-02T10:25:25;21.90;55.90
30594;DHT22;33199;47.590;8.300;2023-07-02T10:27:51;21.90;56.00
30594;DHT22;33199;47.590;8.300;2023-07-02T10:30:16;21.90;56.00
30594;DHT22;33199;47.590;8.300;2023-07-02T10:32:42;21.90;56.00
30594;DHT22;33199;47.590;8.300;2023-07-02T10:35:14;21.90;56.10
30594;DHT22;33199;47.590;8.300;2023-07-02T10:37:40;21.90;56.10
30594;DHT22;33199;47.590;8.300;2023-07-02T10:40:06;21.90;56.10
30594;DHT22;33199;47.590;8.300;2023-07-02T10:42:32;21.90;56.10
30594;DHT22;33199;47.590;8.300;2023-07-02T10:44:59;21.90;56.10
30594;DHT22;33199;47.590;8.300;2023-07-02T10:47:25;21.90;56.10
30594;DHT22;33199;47.590;8.300;2023-07-02T10:49:50;21.90;56.10
30594;DHT22;33199;47.590;8.300;2023-07-02T10:52:16;21.90;56.20
30594;DHT22;33199;47.590;8.300;2023-07-02T10:54:45;21.90;56.20
30594;DHT22;33199;47.590;8.300;2023-07-02T10:57:14;21.90;56.20
30594;DHT22;33199;47.590;8.300;2023-07-02T10:59:41;21.90;56.20
30594;DHT22;33199;47.590;8.300;2023-07-02T11:02:08;21.90;56.20
30594;DHT22;33199;47.590;8.300;2023-07-02T11:04:33;21.90;56.20
30594;DHT22;33199;47.590;8.300;2023-07-02T11:06:59;22.00;56.30
30594;DHT22;33199;47.590;8.300;2023-07-02T11:09:25;21.90;56.20
30594;DHT22;33199;47.590;8.300;2023-07-02T11:11:55;21.90;56.20
30594;DHT22;33199;47.590;8.300;2023-07-02T11:16:55;22.00;56.30
30594;DHT22;33199;47.590;8.300;2023-07-02T11:19:21;22.00;56.30
30594;DHT22;33199;47.590;8.300;2023-07-02T11:21:54;22.00;56.30
30594;DHT22;33199;47.590;8.300;2023-07-02T11:24:28;22.00;56.40
30594;DHT22;33199;47.590;8.300;2023-07-02T11:26:54;22.00;56.40
30594;DHT22;33199;47.590;8.300;2023-07-02T11:29:20;22.00;56.90
30594;DHT22;33199;47.590;8.300;2023-07-02T11:31:46;22.00;56.40
30594;DHT22;33199;47.590;8.300;2023-07-02T11:34:15;22.00;56.40
30594;DHT22;33199;47.590;8.300;2023-07-02T11:36:40;22.00;56.40
30594;DHT22;33199;47.590;8.300;2023-07-02T11:39:06;22.00;56.40
30594;DHT22;33199;47.590;8.300;2023-07-02T11:41:38;22.00;56.40
30594;DHT22;33199;47.590;8.300;2023-07-02T11:44:04;22.00;56.40
30594;DHT22;33199;47.590;8.300;2023-07-02T11:46:30;22.00;56.40
30594;DHT22;33199;47.590;8.300;2023-07-02T11:48:55;22.00;56.40
30594;DHT22;33199;47.590;8.300;2023-07-02T11:51:21;22.00;56.40
30594;DHT22;33199;47.590;8.300;2023-07-02T11:53:46;22.00;56.40
30594;DHT22;33199;47.590;8.300;2023-07-02T11:56:12;22.00;56.50
30594;DHT22;33199;47.590;8.300;2023-07-02T11:58:38;22.00;56.40
30594;DHT22;33199;47.590;8.300;2023-07-02T12:01:04;22.00;56.50
30594;DHT22;33199;47.590;8.300;2023-07-02T12:03:30;22.00;56.40
30594;DHT22;33199;47.590;8.300;2023-07-02T12:05:55;22.10;56.50
30594;DHT22;33199;47.590;8.300;2023-07-02T12:08:21;22.10;56.50
30594;DHT22;33199;47.590;8.300;2023-07-02T12:10:47;22.10;56.50
30594;DHT22;33199;47.590;8.300;2023-07-02T12:13:12;22.10;56.50
30594;DHT22;33199;47.590;8.300;2023-07-02T12:15:38;22.10;56.50
30594;DHT22;33199;47.590;8.300;2023-07-02T12:18:03;22.00;56.50
30594;DHT22;33199;47.590;8.300;2023-07-02T12:20:29;22.10;56.50
30594;DHT22;33199;47.590;8.300;2023-07-02T12:22:54;22.10;56.50
30594;DHT22;33199;47.590;8.300;2023-07-02T12:25:20;22.10;56.50
30594;DHT22;33199;47.590;8.300;2023-07-02T12:27:45;22.10;56.50
30594;DHT22;33199;47.590;8.300;2023-07-02T12:30:11;22.10;56.50
30594;DHT22;33199;47.590;8.300;2023-07-02T12:32:37;22.10;56.50
30594;DHT22;33199;47.590;8.300;2023-07-02T12:35:03;22.10;56.50
30594;DHT22;33199;47.590;8.300;2023-07-02T12:37:29;22.10;56.60
30594;DHT22;33199;47.590;8.300;2023-07-02T12:39:56;22.10;56.60
30594;DHT22;33199;47.590;8.300;2023-07-02T12:42:21;22.10;56.60
30594;DHT22;33199;47.590;8.300;2023-07-02T12:44:47;22.10;56.60
30594;DHT22;33199;47.590;8.300;2023-07-02T12:47:12;22.10;56.60
30594;DHT22;33199;47.590;8.300;2023-07-02T12:49:38;22.10;56.60
30594;DHT22;33199;47.590;8.300;2023-07-02T12:52:03;22.10;56.60
30594;DHT22;33199;47.590;8.300;2023-07-02T12:54:29;22.10;56.60
30594;DHT22;33199;47.590;8.300;2023-07-02T12:56:54;22.20;56.60
30594;DHT22;33199;47.590;8.300;2023-07-02T12:59:20;22.10;56.60
30594;DHT22;33199;47.590;8.300;2023-07-02T13:01:45;22.20;56.60
30594;DHT22;33199;47.590;8.300;2023-07-02T13:04:11;22.20;56.60
30594;DHT22;33199;47.590;8.300;2023-07-02T13:06:36;22.20;56.70
30594;DHT22;33199;47.590;8.300;2023-07-02T13:09:05;22.20;56.70
30594;DHT22;33199;47.590;8.300;2023-07-02T13:11:32;22.20;56.70
30594;DHT22;33199;47.590;8.300;2023-07-02T13:13:57;22.20;56.70
30594;DHT22;33199;47.590;8.300;2023-07-02T13:16:23;22.20;56.60
30594;DHT22;33199;47.590;8.300;2023-07-02T13:18:49;22.20;56.70
30594;DHT22;33199;47.590;8.300;2023-07-02T13:21:14;22.20;56.60
30594;DHT22;33199;47.590;8.300;2023-07-02T13:23:40;22.20;56.60
30594;DHT22;33199;47.590;8.300;2023-07-02T13:26:05;22.30;56.60
30594;DHT22;33199;47.590;8.300;2023-07-02T13:28:31;22.20;56.60
30594;DHT22;33199;47.590;8.300;2023-07-02T13:30:56;22.20;56.60
30594;DHT22;33199;47.590;8.300;2023-07-02T13:33:22;22.30;56.60
30594;DHT22;33199;47.590;8.300;2023-07-02T13:35:47;22.30;56.70
30594;DHT22;33199;47.590;8.300;2023-07-02T13:38:13;22.30;56.60
30594;DHT22;33199;47.590;8.300;2023-07-02T13:40:38;22.30;56.60
30594;DHT22;33199;47.590;8.300;2023-07-02T13:43:04;22.30;56.60
30594;DHT22;33199;47.590;8.300;2023-07-02T13:45:29;22.40;55.70
30594;DHT22;33199;47.590;8.300;2023-07-02T13:47:55;22.50;54.90
30594;DHT22;33199;47.590;8.300;2023-07-02T13:50:20;22.60;54.30
30594;DHT22;33199;47.590;8.300;2023-07-02T13:52:46;22.60;54.40
30594;DHT22;33199;47.590;8.300;2023-07-02T13:55:12;22.60;54.60
30594;DHT22;33199;47.590;8.300;2023-07-02T13:57:37;22.60;54.60
30594;DHT22;33199;47.590;8.300;2023-07-02T14:00:04;22.60;54.70
30594;DHT22;33199;47.590;8.300;2023-07-02T14:02:30;22.50;54.90
30594;DHT22;33199;47.590;8.300;2023-07-02T14:04:57;22.50;55.00
30594;DHT22;33199;47.590;8.300;2023-07-02T14:07:23;22.50;55.20
30594;DHT22;33199;47.590;8.300;2023-07-02T14:09:48;22.50;55.20
30594;DHT22;33199;47.590;8.300;2023-07-02T14:12:14;22.50;55.30
30594;DHT22;33199;47.590;8.300;2023-07-02T14:14:40;22.50;55.40
30594;DHT22;33199;47.590;8.300;2023-07-02T14:17:06;22.50;55.50
30594;DHT22;33199;47.590;8.300;2023-07-02T14:19:32;22.50;55.60
30594;DHT22;33199;47.590;8.300;2023-07-02T14:21:57;22.50;55.60
30594;DHT22;33199;47.590;8.300;2023-07-02T14:24:22;22.50;55.70
30594;DHT22;33199;47.590;8.300;2023-07-02T14:26:48;22.50;55.70
30594;DHT22;33199;47.590;8.300;2023-07-02T14:29:13;22.50;55.90
30594;DHT22;33199;47.590;8.300;2023-07-02T14:31:39;22.50;55.80
30594;DHT22;33199;47.590;8.300;2023-07-02T14:34:04;22.50;55.90
30594;DHT22;33199;47.590;8.300;2023-07-02T14:36:30;22.50;55.80
30594;DHT22;33199;47.590;8.300;2023-07-02T14:38:56;22.50;55.80
30594;DHT22;33199;47.590;8.300;2023-07-02T14:41:21;22.50;55.90
30594;DHT22;33199;47.590;8.300;2023-07-02T14:43:47;22.50;55.90
30594;DHT22;33199;47.590;8.300;2023-07-02T14:46:12;22.50;55.90
30594;DHT22;33199;47.590;8.300;2023-07-02T14:48:38;22.50;55.90
30594;DHT22;33199;47.590;8.300;2023-07-02T14:51:03;22.50;55.90
30594;DHT22;33199;47.590;8.300;2023-07-02T14:53:29;22.50;56.00
30594;DHT22;33199;47.590;8.300;2023-07-02T14:55:55;22.50;56.00
30594;DHT22;33199;47.590;8.300;2023-07-02T14:58:21;22.50;56.00
30594;DHT22;33199;47.590;8.300;2023-07-02T15:00:51;22.50;56.00
30594;DHT22;33199;47.590;8.300;2023-07-02T15:03:18;22.50;56.00
30594;DHT22;33199;47.590;8.300;2023-07-02T15:05:45;22.50;56.00
30594;DHT22;33199;47.590;8.300;2023-07-02T15:08:11;22.50;56.10
30594;DHT22;33199;47.590;8.300;2023-07-02T15:10:42;22.50;56.10
30594;DHT22;33199;47.590;8.300;2023-07-02T15:13:08;22.50;56.10
30594;DHT22;33199;47.590;8.300;2023-07-02T15:15:33;22.50;56.10
30594;DHT22;33199;47.590;8.300;2023-07-02T15:17:59;22.50;56.20
30594;DHT22;33199;47.590;8.300;2023-07-02T15:20:25;22.50;56.20
30594;DHT22;33199;47.590;8.300;2023-07-02T15:22:50;22.50;56.20
30594;DHT22;33199;47.590;8.300;2023-07-02T15:25:16;22.50;56.20
30594;DHT22;33199;47.590;8.300;2023-07-02T15:27:42;22.50;56.20
30594;DHT22;33199;47.590;8.300;2023-07-02T15:30:07;22.60;56.20
30594;DHT22;33199;47.590;8.300;2023-07-02T15:32:33;22.60;56.20
30594;DHT22;33199;47.590;8.300;2023-07-02T15:34:58;22.60;56.20